createdAt,value
2022-07-27T00:00:01.896Z,0.3
2022-07-27T00:03:03.875Z,0.5
2022-07-27T00:06:05.852Z,0.3
2022-07-27T00:09:07.937Z,0.4
2022-07-27T00:12:09.793Z,0.3
2022-07-27T00:15:11.791Z,0.3
2022-07-27T00:18:13.757Z,0.4
2022-07-27T00:21:15.738Z,0.3
2022-07-27T00:24:17.708Z,0.5
2022-07-27T00:27:19.678Z,0.4
2022-07-27T00:30:21.663Z,0.5
2022-07-27T00:33:23.634Z,0.4
2022-07-27T00:36:25.611Z,0.5
2022-07-27T00:39:27.600Z,0.5
2022-07-27T00:42:29.548Z,0.4
2022-07-27T00:45:31.527Z,0.3
2022-07-27T00:48:33.558Z,0.5
2022-07-27T00:51:35.498Z,0.4
2022-07-27T00:54:37.484Z,0.3
2022-07-27T00:57:53.083Z,0.3
2022-07-27T01:00:41.433Z,0.3
2022-07-27T01:03:43.420Z,0.3
2022-07-27T01:06:45.374Z,0.3
2022-07-27T01:09:47.354Z,0.4
2022-07-27T01:12:49.319Z,0.4
2022-07-27T01:15:51.326Z,0.3
2022-07-27T01:18:53.298Z,0.5
2022-07-27T01:21:55.276Z,0.4
2022-07-27T01:24:57.262Z,0.3
2022-07-27T01:27:59.230Z,0.5
2022-07-27T01:31:01.274Z,0.3
2022-07-27T01:34:03.193Z,0.4
2022-07-27T01:37:05.157Z,0.4
2022-07-27T01:40:07.144Z,0.4
2022-07-27T01:43:09.118Z,0.3
2022-07-27T01:46:11.154Z,0.4
2022-07-27T01:49:13.496Z,0.4
2022-07-27T01:52:15.074Z,0.4
2022-07-27T01:55:17.053Z,0.3
2022-07-27T01:58:19.031Z,0.3
2022-07-27T02:01:21.028Z,0.4
2022-07-27T02:04:22.982Z,0.4
2022-07-27T02:07:24.964Z,0.5
2022-07-27T02:10:26.952Z,0.5
2022-07-27T02:13:28.915Z,0.4
2022-07-27T02:16:30.990Z,0.4
2022-07-27T02:19:32.881Z,0.6
2022-07-27T02:22:34.851Z,0.4
2022-07-27T02:25:36.834Z,0.4
2022-07-27T02:28:38.791Z,0.4
2022-07-27T02:31:40.769Z,0.6
2022-07-27T02:34:42.758Z,0.4
2022-07-27T02:37:44.873Z,0.5
2022-07-27T02:40:46.712Z,0.5
2022-07-27T02:43:48.685Z,0.7
2022-07-27T02:46:50.658Z,0.4
2022-07-27T02:49:52.639Z,0.7
2022-07-27T02:52:54.621Z,0.4
2022-07-27T02:55:56.595Z,0.5
2022-07-27T02:58:58.557Z,0.5
2022-07-27T03:02:00.559Z,0.4
2022-07-27T03:05:02.513Z,0.4
2022-07-27T03:08:04.501Z,0.5
2022-07-27T03:11:06.463Z,0.5
2022-07-27T03:14:08.439Z,0.5
2022-07-27T03:17:10.406Z,0.4
2022-07-27T03:20:12.390Z,0.5
2022-07-27T03:23:14.360Z,0.5
2022-07-27T03:26:16.345Z,0.7
2022-07-27T03:29:18.337Z,0.4
2022-07-27T03:32:20.300Z,0.5
2022-07-27T03:35:22.278Z,0.7
2022-07-27T03:38:24.280Z,0.6
2022-07-27T03:41:26.269Z,0.6
2022-07-27T03:44:28.244Z,0.9
2022-07-27T03:47:30.211Z,0.5
2022-07-27T03:50:32.201Z,0.6
2022-07-27T03:53:34.186Z,0.7
2022-07-27T03:56:36.152Z,0.6
2022-07-27T03:59:38.134Z,0.8
2022-07-27T04:02:40.123Z,0.9
2022-07-27T04:05:42.081Z,0.9
2022-07-27T04:08:44.086Z,1
2022-07-27T04:11:50.790Z,0.8
2022-07-27T04:14:48.067Z,0.6
2022-07-27T04:17:53.991Z,0.5
2022-07-27T04:20:52.047Z,0.6
2022-07-27T04:23:54.017Z,0.8
2022-07-27T04:26:56.000Z,0.6
2022-07-27T04:29:57.965Z,0.6
2022-07-27T04:33:00.359Z,0.8
2022-07-27T04:36:02.331Z,0.7
2022-07-27T04:39:04.301Z,0.7
2022-07-27T04:42:06.279Z,0.7
2022-07-27T04:45:08.662Z,0.8
2022-07-27T04:48:10.272Z,0.8
2022-07-27T04:51:12.254Z,0.6
2022-07-27T04:54:14.223Z,0.7
2022-07-27T04:57:16.206Z,0.6
2022-07-27T05:00:18.171Z,1.3
2022-07-27T05:03:20.178Z,0.8
2022-07-27T05:06:22.208Z,0.9
2022-07-27T05:09:24.206Z,0.7
2022-07-27T05:12:26.205Z,0.7
2022-07-27T05:15:28.140Z,0.7
2022-07-27T05:18:30.121Z,0.7
2022-07-27T05:21:32.076Z,1.2
2022-07-27T05:24:34.052Z,0.6
2022-07-27T05:27:36.010Z,0.7
2022-07-27T05:30:37.991Z,0.8
2022-07-27T05:33:40.760Z,0.5
2022-07-27T05:36:41.943Z,0.7
2022-07-27T05:39:43.926Z,0.6
2022-07-27T05:42:45.911Z,1
2022-07-27T05:45:47.947Z,0.6
2022-07-27T05:48:49.961Z,0.8
2022-07-27T05:51:51.903Z,0.8
2022-07-27T05:54:53.812Z,0.8
2022-07-27T05:57:55.788Z,0.8
2022-07-27T06:00:57.943Z,0.9
2022-07-27T06:03:59.843Z,0.7
2022-07-27T06:07:01.728Z,0.7
2022-07-27T06:10:03.691Z,1
2022-07-27T06:13:05.663Z,0.9
2022-07-27T06:16:07.668Z,1.2
2022-07-27T06:19:09.945Z,0.9
2022-07-27T06:22:11.582Z,0.8
2022-07-27T06:25:13.553Z,0.7
2022-07-27T06:28:15.530Z,0.8
2022-07-27T06:31:17.547Z,0.9
2022-07-27T06:34:19.493Z,0.8
2022-07-27T06:37:21.484Z,0.9
2022-07-27T06:40:26.317Z,1
2022-07-27T06:43:25.424Z,0.7
2022-07-27T06:46:27.447Z,0.8
2022-07-27T06:49:29.430Z,0.9
2022-07-27T06:52:31.351Z,0.8
2022-07-27T06:55:33.316Z,0.7
2022-07-27T06:58:35.291Z,0.8
2022-07-27T07:01:37.270Z,0.7
2022-07-27T07:04:39.256Z,0.6
2022-07-27T07:07:41.196Z,0.8
2022-07-27T07:10:43.181Z,0.8
2022-07-27T07:13:45.291Z,0.8
2022-07-27T07:16:47.191Z,0.7
2022-07-27T07:19:49.084Z,0.6
2022-07-27T07:22:51.053Z,0.8
2022-07-27T07:25:53.011Z,0.9
2022-07-27T07:28:55.012Z,0.8
2022-07-27T07:31:57.041Z,0.9
2022-07-27T07:34:58.930Z,0.8
2022-07-27T07:38:00.886Z,0.8
2022-07-27T07:41:02.863Z,0.9
2022-07-27T07:44:04.831Z,0.8
2022-07-27T07:47:06.866Z,0.7
2022-07-27T07:50:08.774Z,0.7
2022-07-27T07:53:10.730Z,0.9
2022-07-27T07:56:12.717Z,1.3
2022-07-27T07:59:14.957Z,0.8
2022-07-27T08:02:16.702Z,0.8
2022-07-27T08:05:18.626Z,0.9
2022-07-27T08:08:20.607Z,0.8
2022-07-27T08:11:22.592Z,1
2022-07-27T08:14:24.570Z,0.9
2022-07-27T08:17:26.531Z,1.1
2022-07-27T08:20:28.539Z,1.1
2022-07-27T08:23:30.505Z,0.8
2022-07-27T08:26:32.489Z,1
2022-07-27T08:29:36.738Z,0.9
2022-07-27T08:32:36.462Z,0.6
2022-07-27T08:35:38.419Z,0.7
2022-07-27T08:38:40.385Z,0.5
2022-07-27T08:41:42.376Z,0.7
2022-07-27T08:44:44.370Z,0.9
2022-07-27T08:47:46.323Z,1
2022-07-27T08:50:48.482Z,1.2
2022-07-27T08:53:52.274Z,1.2
2022-07-27T08:56:52.444Z,1.1
2022-07-27T08:59:54.420Z,1
2022-07-27T09:02:56.424Z,0.9
2022-07-27T09:05:58.350Z,0.6
2022-07-27T09:09:00.348Z,0.7
2022-07-27T09:12:02.335Z,0.8
2022-07-27T09:15:04.304Z,0.8
2022-07-27T09:18:06.321Z,0.7
2022-07-27T09:21:08.272Z,0.7
2022-07-27T09:24:17.792Z,0.6
2022-07-27T09:27:12.240Z,0.7
2022-07-27T09:30:14.220Z,0.5
2022-07-27T09:33:16.167Z,0.9
2022-07-27T09:36:18.135Z,0.6
2022-07-27T09:39:20.116Z,1
2022-07-27T09:43:03.767Z,1.1
2022-07-27T09:45:24.073Z,0.7
2022-07-27T09:48:26.041Z,0.6
2022-07-27T09:51:58.038Z,0.6
2022-07-27T09:54:29.999Z,0.6
2022-07-27T09:57:31.970Z,0.7
2022-07-27T10:00:33.951Z,0.8
2022-07-27T10:03:35.935Z,0.8
2022-07-27T10:07:00.726Z,0.7
2022-07-27T10:09:42.911Z,0.7
2022-07-27T10:12:48.083Z,0.7
2022-07-27T10:15:46.883Z,1
2022-07-27T10:18:50.710Z,0.9
2022-07-27T10:21:50.819Z,0.7
2022-07-27T10:24:53.117Z,1.1
2022-07-27T10:27:54.753Z,0.7
2022-07-27T10:30:56.741Z,0.8
2022-07-27T10:33:58.678Z,0.7
2022-07-27T10:37:00.645Z,0.7
2022-07-27T10:40:02.602Z,1
2022-07-27T10:43:04.572Z,0.7
2022-07-27T10:46:06.615Z,0.6
2022-07-27T10:49:08.570Z,0.9
2022-07-27T10:52:10.476Z,0.8
2022-07-27T10:55:12.464Z,0.6
2022-07-27T10:58:14.438Z,1.2
2022-07-27T11:01:16.514Z,1.1
2022-07-27T11:04:18.397Z,0.8
2022-07-27T11:07:24.321Z,0.8
2022-07-27T11:10:22.317Z,1.3
2022-07-27T11:13:24.809Z,0.5
2022-07-27T11:16:26.279Z,1.2
2022-07-27T11:19:28.295Z,0.9
2022-07-27T11:22:45.945Z,1.1
2022-07-27T11:25:32.213Z,0.8
2022-07-27T11:28:34.173Z,0.8
2022-07-27T11:31:54.505Z,0.7
2022-07-27T11:34:38.139Z,0.8
2022-07-27T11:37:42.186Z,0.7
2022-07-27T11:40:56.655Z,0.7
2022-07-27T11:43:45.352Z,0.5
2022-07-27T11:46:46.102Z,0.6
2022-07-27T11:49:48.154Z,0.8
2022-07-27T11:52:50.044Z,0.7
2022-07-27T11:55:52.019Z,0.7
2022-07-27T11:58:56.158Z,0.6
2022-07-27T12:01:56.029Z,0.5
2022-07-27T12:05:02.535Z,0.4
2022-07-27T12:07:59.903Z,0.7
2022-07-27T12:11:01.871Z,0.6
2022-07-27T12:14:03.864Z,0.5
2022-07-27T12:17:05.951Z,0.6
2022-07-27T12:20:07.806Z,0.5
2022-07-27T12:23:09.783Z,0.7
2022-07-27T12:26:11.766Z,0.3
2022-07-27T12:29:14.034Z,0.5
2022-07-27T12:32:15.724Z,0.6
2022-07-27T12:35:17.714Z,0.5
2022-07-27T12:38:19.682Z,0.5
2022-07-27T12:41:21.695Z,0.7
2022-07-27T12:44:23.683Z,0.5
2022-07-27T12:47:27.845Z,0.5
2022-07-27T12:50:27.638Z,0.8
2022-07-27T12:53:29.592Z,0.8
2022-07-27T12:56:31.576Z,0.6
2022-07-27T12:59:33.555Z,0.4
2022-07-27T13:02:35.621Z,0.5
2022-07-27T13:05:37.519Z,0.5
2022-07-27T13:08:39.501Z,0.5
2022-07-27T13:11:43.945Z,0.6
2022-07-27T13:14:43.539Z,0.7
2022-07-27T13:17:45.669Z,0.5
2022-07-27T13:20:47.420Z,0.6
2022-07-27T13:23:49.384Z,0.4
2022-07-27T13:26:51.387Z,0.4
2022-07-27T13:29:53.369Z,0.5
2022-07-27T13:32:55.342Z,0.6
2022-07-27T13:35:59.414Z,0.4
2022-07-27T13:38:59.298Z,0.5
2022-07-27T13:42:01.271Z,0.5
2022-07-27T13:45:09.019Z,0.5
2022-07-27T13:48:05.228Z,0.4
2022-07-27T13:51:07.282Z,0.5
2022-07-27T13:54:09.182Z,0.5
2022-07-27T13:57:11.161Z,0.3
2022-07-27T14:00:13.156Z,0.6
2022-07-27T14:03:15.132Z,0.5
2022-07-27T14:06:17.117Z,0.4
2022-07-27T14:09:19.081Z,0.7
2022-07-27T14:12:21.054Z,0.5
2022-07-27T14:15:23.030Z,0.5
2022-07-27T14:18:25.016Z,0.4
2022-07-27T14:21:26.989Z,0.4
2022-07-27T14:24:28.953Z,0.5
2022-07-27T14:27:33.643Z,0.6
2022-07-27T14:30:32.909Z,0.6
2022-07-27T14:33:36.555Z,0.6
2022-07-27T14:36:36.871Z,0.5
2022-07-27T14:39:39.348Z,0.6
2022-07-27T14:42:40.832Z,0.5
2022-07-27T14:45:44.221Z,0.6
2022-07-27T14:49:04.975Z,0.6
2022-07-27T14:51:46.742Z,0.6
2022-07-27T14:54:48.732Z,0.6
2022-07-27T14:57:50.700Z,0.5
2022-07-27T15:00:52.790Z,0.4
2022-07-27T15:03:54.664Z,0.5
2022-07-27T15:06:56.640Z,0.4
2022-07-27T15:09:58.716Z,0.7
2022-07-27T15:13:00.599Z,0.6
2022-07-27T15:16:02.631Z,0.4
2022-07-27T15:19:04.572Z,0.5
2022-07-27T15:22:06.542Z,0.5
2022-07-27T15:25:12.118Z,0.5
2022-07-27T15:28:10.512Z,0.6
2022-07-27T15:31:13.252Z,0.5
2022-07-27T15:34:14.455Z,1
2022-07-27T15:37:16.419Z,0.6
2022-07-27T15:40:20.139Z,0.5
2022-07-27T15:43:20.363Z,0.4
2022-07-27T15:46:27.056Z,0.5
2022-07-27T15:49:24.374Z,0.5
2022-07-27T15:52:26.351Z,0.5
2022-07-27T15:55:28.312Z,0.6
2022-07-27T15:58:30.280Z,0.5
2022-07-27T16:01:35.250Z,0.4
2022-07-27T16:04:34.253Z,0.6
2022-07-27T16:07:40.722Z,0.3
2022-07-27T16:10:38.189Z,0.4
2022-07-27T16:13:40.182Z,0.4
2022-07-27T16:16:42.221Z,0.5
2022-07-27T16:19:44.140Z,0.4
2022-07-27T16:22:46.107Z,0.4
2022-07-27T16:26:03.144Z,0.5
2022-07-27T16:28:50.082Z,0.5
2022-07-27T16:31:52.156Z,0.5
2022-07-27T16:34:54.022Z,0.6
2022-07-27T16:37:56.003Z,0.5
2022-07-27T16:40:57.987Z,0.4
2022-07-27T16:43:59.966Z,0.4
2022-07-27T16:47:02.065Z,0.4
2022-07-27T16:50:04.063Z,0.4
2022-07-27T16:53:06.046Z,0.5
2022-07-27T16:56:08.013Z,0.4
2022-07-27T16:59:10.245Z,0.6
2022-07-27T17:02:12.032Z,0.7
2022-07-27T17:05:13.955Z,0.7
2022-07-27T17:08:15.905Z,0.5
2022-07-27T17:11:20.763Z,0.4
2022-07-27T17:14:19.889Z,0.4
2022-07-27T17:17:21.851Z,0.5
2022-07-27T17:20:28.087Z,0.5
2022-07-27T17:23:25.802Z,0.4
2022-07-27T17:26:27.785Z,0.5
2022-07-27T17:29:29.753Z,0.4
2022-07-27T17:32:31.707Z,0.5
2022-07-27T17:35:33.738Z,0.4
2022-07-27T17:38:35.731Z,0.6
2022-07-27T17:41:37.729Z,0.4
2022-07-27T17:44:39.723Z,0.8
2022-07-27T17:47:41.724Z,0.7
2022-07-27T17:50:43.681Z,0.7
2022-07-27T17:53:45.857Z,0.6
2022-07-27T17:56:47.637Z,0.6
2022-07-27T17:59:49.631Z,0.7
2022-07-27T18:02:51.592Z,0.4
2022-07-27T18:05:53.580Z,0.5
2022-07-27T18:08:55.553Z,0.5
2022-07-27T18:11:57.506Z,0.5
2022-07-27T18:14:59.481Z,0.4
2022-07-27T18:18:01.471Z,0.4
2022-07-27T18:21:03.424Z,0.5
2022-07-27T18:24:05.465Z,0.6
2022-07-27T18:27:07.436Z,0.7
2022-07-27T18:30:09.408Z,0.5
2022-07-27T18:33:11.388Z,0.6
2022-07-27T18:36:13.345Z,0.5
2022-07-27T18:39:15.800Z,0.4
2022-07-27T18:42:17.283Z,0.4
2022-07-27T18:45:19.266Z,0.5
2022-07-27T18:48:21.257Z,0.5
2022-07-27T18:51:23.206Z,0.5
2022-07-27T18:54:25.205Z,0.5
2022-07-27T18:57:27.186Z,0.4
2022-07-27T19:00:29.134Z,0.4
2022-07-27T19:03:31.108Z,0.6
2022-07-27T19:06:33.081Z,0.4
2022-07-27T19:09:35.046Z,0.5
2022-07-27T19:12:37.102Z,0.5
2022-07-27T19:15:39.089Z,0.4
2022-07-27T19:18:41.034Z,0.5
2022-07-27T19:21:43.021Z,0.5
2022-07-27T19:24:44.995Z,0.6
2022-07-27T19:27:46.968Z,0.4
2022-07-27T19:30:49.085Z,0.3
2022-07-27T19:33:50.971Z,0.4
2022-07-27T19:36:52.911Z,0.5
2022-07-27T19:39:57.738Z,0.4
2022-07-27T19:42:56.854Z,0.5
2022-07-27T19:45:58.874Z,0.5
2022-07-27T19:49:00.929Z,0.5
2022-07-27T19:52:02.821Z,0.4
2022-07-27T19:55:04.802Z,0.5
2022-07-27T19:58:06.777Z,0.4
2022-07-27T20:01:09.329Z,0.5
2022-07-27T20:04:10.753Z,0.4
2022-07-27T20:07:12.757Z,0.5
2022-07-27T20:10:14.721Z,0.3
2022-07-27T20:13:16.711Z,0.3
2022-07-27T20:16:18.768Z,0.5
2022-07-27T20:19:20.652Z,0.3
2022-07-27T20:22:22.630Z,0.6
2022-07-27T20:25:24.609Z,0.4
2022-07-27T20:28:26.601Z,0.6
2022-07-27T20:31:28.583Z,0.7
2022-07-27T20:34:30.553Z,0.5
2022-07-27T20:37:32.539Z,0.8
2022-07-27T20:40:34.526Z,0.5
2022-07-27T20:43:36.494Z,0.5
2022-07-27T20:46:38.465Z,0.4
2022-07-27T20:49:40.484Z,0.5
2022-07-27T20:52:42.461Z,0.5
2022-07-27T20:55:44.430Z,0.6
2022-07-27T20:58:46.421Z,0.5
2022-07-27T21:01:48.385Z,0.6
2022-07-27T21:04:50.367Z,0.5
2022-07-27T21:07:52.346Z,0.5
2022-07-27T21:10:54.309Z,0.4
2022-07-27T21:13:56.304Z,0.4
2022-07-27T21:16:58.315Z,0.5
2022-07-27T21:20:00.257Z,0.6
2022-07-27T21:23:02.219Z,0.5
2022-07-27T21:26:04.195Z,0.6
2022-07-27T21:29:06.203Z,0.5
2022-07-27T21:32:08.161Z,0.5
2022-07-27T21:35:10.135Z,0.4
2022-07-27T21:38:12.136Z,0.5
2022-07-27T21:41:14.097Z,0.5
2022-07-27T21:44:16.637Z,0.5
2022-07-27T21:47:18.059Z,0.6
2022-07-27T21:50:20.028Z,0.3
2022-07-27T21:53:22.016Z,0.6
2022-07-27T21:56:24.002Z,0.6
2022-07-27T21:59:25.995Z,0.6
2022-07-27T22:02:28.362Z,0.8
2022-07-27T22:05:29.929Z,0.6
2022-07-27T22:08:31.903Z,0.5
2022-07-27T22:11:33.879Z,0.4
2022-07-27T22:14:35.850Z,0.6
2022-07-27T22:17:46.324Z,0.5
2022-07-27T22:20:39.810Z,0.4
2022-07-27T22:23:41.798Z,0.5
2022-07-27T22:26:43.771Z,0.8
2022-07-27T22:29:45.744Z,0.4
2022-07-27T22:32:47.721Z,0.5
2022-07-27T22:35:49.688Z,0.6
2022-07-27T22:38:51.665Z,0.5
2022-07-27T22:41:53.640Z,0.5
2022-07-27T22:44:55.639Z,0.5
2022-07-27T22:47:57.608Z,0.5
2022-07-27T22:50:59.590Z,0.5
2022-07-27T22:54:01.557Z,0.5
2022-07-27T22:57:03.536Z,0.4
2022-07-27T23:00:05.523Z,0.5
2022-07-27T23:03:07.484Z,0.6
2022-07-27T23:06:09.473Z,0.6
2022-07-27T23:09:11.437Z,0.6
2022-07-27T23:12:13.412Z,0.3
2022-07-27T23:15:15.391Z,0.6
2022-07-27T23:18:17.396Z,0.8
2022-07-27T23:21:19.373Z,0.5
2022-07-27T23:24:28.739Z,0.6
2022-07-27T23:27:23.323Z,0.6
2022-07-27T23:30:25.300Z,0.6
2022-07-27T23:33:27.279Z,0.6
2022-07-27T23:36:29.261Z,0.4
2022-07-27T23:39:31.219Z,0.4
2022-07-27T23:42:33.209Z,0.4
2022-07-27T23:45:35.170Z,0.4
2022-07-27T23:48:37.181Z,0.7
2022-07-27T23:51:39.120Z,0.5
2022-07-27T23:54:41.094Z,0.6
2022-07-27T23:57:43.086Z,0.6
